sensor_id;sensor_type;location;lat;lon;timestamp;pressure;altitude;pressure_sealevel;temperature;humidity
68141;BME280;54941;52.220;104.306;2023-04-29T00:00:20;95764.63;;;13.48;39.62
68141;BME280;54941;52.220;104.306;2023-04-29T00:02:47;95760.28;;;13.15;40.12
68141;BME280;54941;52.220;104.306;2023-04-29T00:05:13;95754.16;;;12.19;42.34
68141;BME280;54941;52.220;104.306;2023-04-29T00:07:39;95754.31;;;12.69;41.46
68141;BME280;54941;52.220;104.306;2023-04-29T00:10:08;95741.78;;;12.33;42.07
68141;BME280;54941;52.220;104.306;2023-04-29T00:12:35;95741.41;;;12.01;43.20
68141;BME280;54941;52.220;104.306;2023-04-29T00:15:01;95748.41;;;12.29;42.58
68141;BME280;54941;52.220;104.306;2023-04-29T00:17:32;95755.03;;;12.37;42.30
68141;BME280;54941;52.220;104.306;2023-04-29T00:19:59;95748.56;;;13.29;40.38
68141;BME280;54941;52.220;104.306;2023-04-29T00:22:25;95754.53;;;13.68;39.71
68141;BME280;54941;52.220;104.306;2023-04-29T00:24:52;95754.22;;;12.64;41.79
68141;BME280;54941;52.220;104.306;2023-04-29T00:27:20;95761.50;;;12.67;41.80
68141;BME280;54941;52.220;104.306;2023-04-29T00:29:46;95751.06;;;13.24;40.66
68141;BME280;54941;52.220;104.306;2023-04-29T00:32:12;95749.91;;;13.15;40.87
68141;BME280;54941;52.220;104.306;2023-04-29T00:34:39;95750.84;;;13.26;41.25
68141;BME280;54941;52.220;104.306;2023-04-29T00:37:05;95745.22;;;13.67;40.42
68141;BME280;54941;52.220;104.306;2023-04-29T00:39:31;95753.75;;;12.39;43.06
68141;BME280;54941;52.220;104.306;2023-04-29T00:41:58;95740.44;;;12.76;41.78
68141;BME280;54941;52.220;104.306;2023-04-29T00:44:25;95752.00;;;11.53;44.48
68141;BME280;54941;52.220;104.306;2023-04-29T00:46:52;95758.91;;;12.23;43.81
68141;BME280;54941;52.220;104.306;2023-04-29T00:49:18;95755.63;;;11.41;45.85
68141;BME280;54941;52.220;104.306;2023-04-29T00:51:45;95763.75;;;12.64;43.87
68141;BME280;54941;52.220;104.306;2023-04-29T00:54:12;95770.47;;;12.77;43.13
68141;BME280;54941;52.220;104.306;2023-04-29T00:56:39;95761.41;;;12.34;43.90
68141;BME280;54941;52.220;104.306;2023-04-29T00:59:05;95760.78;;;12.55;43.37
68141;BME280;54941;52.220;104.306;2023-04-29T01:01:33;95759.50;;;12.41;44.62
68141;BME280;54941;52.220;104.306;2023-04-29T01:04:00;95753.78;;;11.99;44.72
68141;BME280;54941;52.220;104.306;2023-04-29T01:06:33;95737.78;;;11.39;46.63
68141;BME280;54941;52.220;104.306;2023-04-29T01:09:15;95749.78;;;12.77;43.75
68141;BME280;54941;52.220;104.306;2023-04-29T01:11:48;95747.97;;;11.92;45.52
68141;BME280;54941;52.220;104.306;2023-04-29T01:14:15;95758.09;;;12.50;44.80
68141;BME280;54941;52.220;104.306;2023-04-29T01:16:46;95749.81;;;12.48;44.46
68141;BME280;54941;52.220;104.306;2023-04-29T01:19:21;95754.03;;;12.54;45.41
68141;BME280;54941;52.220;104.306;2023-04-29T01:21:54;95756.31;;;12.23;45.72
68141;BME280;54941;52.220;104.306;2023-04-29T01:24:21;95756.34;;;12.67;44.70
68141;BME280;54941;52.220;104.306;2023-04-29T01:26:53;95744.06;;;12.75;44.85
68141;BME280;54941;52.220;104.306;2023-04-29T01:29:26;95747.25;;;12.65;44.81
68141;BME280;54941;52.220;104.306;2023-04-29T01:32:03;95743.59;;;12.49;45.47
68141;BME280;54941;52.220;104.306;2023-04-29T01:34:33;95736.41;;;12.51;45.61
68141;BME280;54941;52.220;104.306;2023-04-29T01:37:06;95734.94;;;11.87;47.04
68141;BME280;54941;52.220;104.306;2023-04-29T01:39:44;95740.47;;;12.47;46.00
68141;BME280;54941;52.220;104.306;2023-04-29T01:42:16;95744.53;;;12.43;46.09
68141;BME280;54941;52.220;104.306;2023-04-29T01:44:46;95739.22;;;12.78;46.00
68141;BME280;54941;52.220;104.306;2023-04-29T01:47:14;95737.56;;;13.39;44.11
68141;BME280;54941;52.220;104.306;2023-04-29T01:49:40;95727.44;;;14.19;42.73
68141;BME280;54941;52.220;104.306;2023-04-29T01:52:07;95733.34;;;12.38;46.52
68141;BME280;54941;52.220;104.306;2023-04-29T01:54:33;95726.66;;;12.87;45.85
68141;BME280;54941;52.220;104.306;2023-04-29T01:57:02;95727.34;;;13.10;45.03
68141;BME280;54941;52.220;104.306;2023-04-29T01:59:28;95709.09;;;13.39;43.99
68141;BME280;54941;52.220;104.306;2023-04-29T02:01:54;95700.41;;;13.45;44.76
68141;BME280;54941;52.220;104.306;2023-04-29T02:04:20;95694.66;;;13.43;44.37
68141;BME280;54941;52.220;104.306;2023-04-29T02:06:47;95701.22;;;13.89;43.77
68141;BME280;54941;52.220;104.306;2023-04-29T02:09:13;95697.34;;;13.31;44.77
68141;BME280;54941;52.220;104.306;2023-04-29T02:11:39;95697.72;;;13.40;44.16
68141;BME280;54941;52.220;104.306;2023-04-29T02:14:07;95695.63;;;13.37;44.37
68141;BME280;54941;52.220;104.306;2023-04-29T02:16:33;95691.25;;;14.02;43.38
68141;BME280;54941;52.220;104.306;2023-04-29T02:19:00;95680.69;;;14.09;43.05
68141;BME280;54941;52.220;104.306;2023-04-29T02:21:26;95678.53;;;14.28;42.38
68141;BME280;54941;52.220;104.306;2023-04-29T02:23:52;95680.94;;;13.86;43.25
68141;BME280;54941;52.220;104.306;2023-04-29T02:26:19;95683.78;;;13.84;42.82
68141;BME280;54941;52.220;104.306;2023-04-29T02:28:45;95681.53;;;14.14;42.85
68141;BME280;54941;52.220;104.306;2023-04-29T02:31:13;95686.28;;;14.44;42.51
68141;BME280;54941;52.220;104.306;2023-04-29T02:33:39;95689.81;;;13.68;44.16
68141;BME280;54941;52.220;104.306;2023-04-29T02:36:06;95687.03;;;14.45;42.47
68141;BME280;54941;52.220;104.306;2023-04-29T02:38:32;95675.84;;;14.39;42.39
68141;BME280;54941;52.220;104.306;2023-04-29T02:40:58;95681.84;;;14.45;42.06
68141;BME280;54941;52.220;104.306;2023-04-29T02:43:24;95673.19;;;14.61;41.94
68141;BME280;54941;52.220;104.306;2023-04-29T02:45:51;95669.72;;;14.02;43.48
68141;BME280;54941;52.220;104.306;2023-04-29T02:48:19;95669.13;;;14.70;42.26
68141;BME280;54941;52.220;104.306;2023-04-29T02:50:45;95665.72;;;14.38;42.74
68141;BME280;54941;52.220;104.306;2023-04-29T02:53:11;95657.22;;;14.74;41.48
68141;BME280;54941;52.220;104.306;2023-04-29T02:55:38;95674.88;;;14.77;41.40
68141;BME280;54941;52.220;104.306;2023-04-29T02:58:04;95671.63;;;14.97;41.02
68141;BME280;54941;52.220;104.306;2023-04-29T03:00:30;95669.13;;;14.75;41.32
68141;BME280;54941;52.220;104.306;2023-04-29T03:02:57;95665.25;;;16.29;38.47
68141;BME280;54941;52.220;104.306;2023-04-29T03:05:26;95682.44;;;16.35;38.14
68141;BME280;54941;52.220;104.306;2023-04-29T03:07:53;95675.16;;;16.37;37.89
68141;BME280;54941;52.220;104.306;2023-04-29T03:10:19;95665.81;;;17.12;36.90
68141;BME280;54941;52.220;104.306;2023-04-29T03:12:46;95658.84;;;17.91;35.29
68141;BME280;54941;52.220;104.306;2023-04-29T03:15:13;95654.19;;;17.88;35.42
68141;BME280;54941;52.220;104.306;2023-04-29T03:17:39;95654.66;;;18.39;34.14
68141;BME280;54941;52.220;104.306;2023-04-29T03:20:06;95646.03;;;17.16;36.41
68141;BME280;54941;52.220;104.306;2023-04-29T03:22:34;95630.16;;;17.12;36.41
68141;BME280;54941;52.220;104.306;2023-04-29T03:25:01;95643.13;;;18.45;34.19
68141;BME280;54941;52.220;104.306;2023-04-29T03:27:30;95656.66;;;19.49;33.04
68141;BME280;54941;52.220;104.306;2023-04-29T03:29:57;95655.44;;;18.40;34.65
68141;BME280;54941;52.220;104.306;2023-04-29T03:32:23;95655.69;;;18.43;34.51
68141;BME280;54941;52.220;104.306;2023-04-29T03:34:49;95648.75;;;19.25;32.84
68141;BME280;54941;52.220;104.306;2023-04-29T03:37:16;95638.81;;;18.26;35.17
68141;BME280;54941;52.220;104.306;2023-04-29T03:39:43;95638.94;;;18.11;35.30
68141;BME280;54941;52.220;104.306;2023-04-29T03:42:10;95635.31;;;19.13;33.76
68141;BME280;54941;52.220;104.306;2023-04-29T03:44:36;95633.59;;;18.26;34.80
68141;BME280;54941;52.220;104.306;2023-04-29T03:47:02;95645.00;;;20.77;31.08
68141;BME280;54941;52.220;104.306;2023-04-29T03:49:29;95625.59;;;18.56;34.48
68141;BME280;54941;52.220;104.306;2023-04-29T03:51:55;95620.41;;;18.85;34.07
68141;BME280;54941;52.220;104.306;2023-04-29T03:54:22;95619.91;;;19.35;33.62
68141;BME280;54941;52.220;104.306;2023-04-29T03:56:50;95616.19;;;18.60;34.32
68141;BME280;54941;52.220;104.306;2023-04-29T03:59:16;95606.31;;;19.33;33.12
68141;BME280;54941;52.220;104.306;2023-04-29T04:01:43;95620.47;;;19.32;33.72
68141;BME280;54941;52.220;104.306;2023-04-29T04:04:09;95618.69;;;19.52;33.32
68141;BME280;54941;52.220;104.306;2023-04-29T04:06:35;95611.66;;;20.97;31.47
68141;BME280;54941;52.220;104.306;2023-04-29T04:09:02;95611.00;;;21.05;31.17
68141;BME280;54941;52.220;104.306;2023-04-29T04:11:28;95610.34;;;20.67;31.38
68141;BME280;54941;52.220;104.306;2023-04-29T04:13:56;95619.78;;;20.49;31.35
68141;BME280;54941;52.220;104.306;2023-04-29T04:16:22;95614.91;;;19.63;32.73
68141;BME280;54941;52.220;104.306;2023-04-29T04:18:49;95618.69;;;19.75;32.82
68141;BME280;54941;52.220;104.306;2023-04-29T04:21:15;95620.56;;;21.14;30.66
68141;BME280;54941;52.220;104.306;2023-04-29T04:23:42;95600.00;;;21.49;30.73
68141;BME280;54941;52.220;104.306;2023-04-29T04:26:08;95615.94;;;20.93;31.38
68141;BME280;54941;52.220;104.306;2023-04-29T04:28:34;95591.03;;;19.22;34.16
68141;BME280;54941;52.220;104.306;2023-04-29T04:31:02;95602.88;;;20.23;32.55
68141;BME280;54941;52.220;104.306;2023-04-29T04:33:29;95594.81;;;20.19;32.99
68141;BME280;54941;52.220;104.306;2023-04-29T04:35:55;95593.53;;;19.08;34.59
68141;BME280;54941;52.220;104.306;2023-04-29T04:38:21;95595.00;;;19.67;33.59
68141;BME280;54941;52.220;104.306;2023-04-29T04:40:48;95596.59;;;20.43;32.04
68141;BME280;54941;52.220;104.306;2023-04-29T04:43:14;95574.81;;;18.72;35.77
68141;BME280;54941;52.220;104.306;2023-04-29T04:45:40;95570.16;;;18.69;35.37
68141;BME280;54941;52.220;104.306;2023-04-29T04:48:08;95579.28;;;19.24;34.37
68141;BME280;54941;52.220;104.306;2023-04-29T04:50:35;95582.53;;;18.59;35.24
68141;BME280;54941;52.220;104.306;2023-04-29T04:53:01;95572.53;;;19.18;34.71
68141;BME280;54941;52.220;104.306;2023-04-29T04:55:27;95576.34;;;19.55;34.29
68141;BME280;54941;52.220;104.306;2023-04-29T04:57:54;95567.66;;;20.15;33.12
68141;BME280;54941;52.220;104.306;2023-04-29T05:00:20;95552.38;;;19.85;33.79
68141;BME280;54941;52.220;104.306;2023-04-29T05:02:47;95567.81;;;19.20;35.26
68141;BME280;54941;52.220;104.306;2023-04-29T05:05:15;95568.22;;;19.93;34.19
68141;BME280;54941;52.220;104.306;2023-04-29T05:07:41;95561.03;;;21.56;31.50
68141;BME280;54941;52.220;104.306;2023-04-29T05:10:08;95561.13;;;21.10;32.05
68141;BME280;54941;52.220;104.306;2023-04-29T05:12:35;95556.84;;;20.86;31.95
68141;BME280;54941;52.220;104.306;2023-04-29T05:15:02;95558.38;;;20.23;33.32
68141;BME280;54941;52.220;104.306;2023-04-29T05:17:31;95567.22;;;20.08;33.03
68141;BME280;54941;52.220;104.306;2023-04-29T05:19:57;95555.41;;;20.11;34.16
68141;BME280;54941;52.220;104.306;2023-04-29T05:22:25;95552.09;;;20.24;33.37
68141;BME280;54941;52.220;104.306;2023-04-29T05:24:51;95556.28;;;20.57;32.94
68141;BME280;54941;52.220;104.306;2023-04-29T05:27:18;95538.50;;;21.00;32.20
68141;BME280;54941;52.220;104.306;2023-04-29T05:29:44;95544.59;;;20.68;32.37
68141;BME280;54941;52.220;104.306;2023-04-29T05:32:11;95547.00;;;21.24;31.94
68141;BME280;54941;52.220;104.306;2023-04-29T05:34:37;95536.06;;;21.04;31.75
68141;BME280;54941;52.220;104.306;2023-04-29T05:37:04;95538.09;;;20.93;32.33
68141;BME280;54941;52.220;104.306;2023-04-29T05:39:32;95534.84;;;21.15;32.14
68141;BME280;54941;52.220;104.306;2023-04-29T05:41:58;95524.81;;;21.58;31.82
68141;BME280;54941;52.220;104.306;2023-04-29T05:44:24;95542.75;;;20.96;31.97
68141;BME280;54941;52.220;104.306;2023-04-29T05:46:51;95534.72;;;20.93;31.59
68141;BME280;54941;52.220;104.306;2023-04-29T05:49:17;95532.88;;;21.61;30.82
68141;BME280;54941;52.220;104.306;2023-04-29T05:51:44;95542.28;;;22.12;29.99
68141;BME280;54941;52.220;104.306;2023-04-29T05:54:10;95511.00;;;20.70;32.23
68141;BME280;54941;52.220;104.306;2023-04-29T05:56:38;95525.59;;;20.25;32.89
68141;BME280;54941;52.220;104.306;2023-04-29T05:59:05;95524.72;;;20.16;33.28
68141;BME280;54941;52.220;104.306;2023-04-29T06:01:31;95526.44;;;20.72;32.58
68141;BME280;54941;52.220;104.306;2023-04-29T06:03:58;95526.69;;;21.16;31.45
68141;BME280;54941;52.220;104.306;2023-04-29T06:06:24;95526.47;;;21.54;31.13
68141;BME280;54941;52.220;104.306;2023-04-29T06:08:51;95517.94;;;22.51;30.09
68141;BME280;54941;52.220;104.306;2023-04-29T06:11:18;95511.59;;;21.49;30.83
68141;BME280;54941;52.220;104.306;2023-04-29T06:13:46;95509.09;;;22.16;29.98
68141;BME280;54941;52.220;104.306;2023-04-29T06:16:13;95507.75;;;21.33;31.03
68141;BME280;54941;52.220;104.306;2023-04-29T06:18:39;95488.88;;;20.63;32.21
68141;BME280;54941;52.220;104.306;2023-04-29T06:21:06;95506.78;;;21.78;30.55
68141;BME280;54941;52.220;104.306;2023-04-29T06:23:32;95510.66;;;20.45;33.12
68141;BME280;54941;52.220;104.306;2023-04-29T06:26:00;95492.94;;;20.55;32.42
68141;BME280;54941;52.220;104.306;2023-04-29T06:28:26;95486.97;;;21.09;31.99
68141;BME280;54941;52.220;104.306;2023-04-29T06:30:54;95493.56;;;21.34;31.11
68141;BME280;54941;52.220;104.306;2023-04-29T06:33:21;95472.19;;;20.13;32.87
68141;BME280;54941;52.220;104.306;2023-04-29T06:35:47;95471.03;;;19.86;33.59
68141;BME280;54941;52.220;104.306;2023-04-29T06:38:14;95477.44;;;20.59;32.37
68141;BME280;54941;52.220;104.306;2023-04-29T06:40:40;95481.44;;;20.97;31.71
68141;BME280;54941;52.220;104.306;2023-04-29T06:43:06;95472.97;;;20.59;32.30
68141;BME280;54941;52.220;104.306;2023-04-29T06:45:33;95477.25;;;20.69;31.60
68141;BME280;54941;52.220;104.306;2023-04-29T06:48:01;95464.38;;;21.13;31.20
68141;BME280;54941;52.220;104.306;2023-04-29T06:50:28;95466.09;;;21.04;31.32
68141;BME280;54941;52.220;104.306;2023-04-29T06:52:56;95463.09;;;20.83;31.59
68141;BME280;54941;52.220;104.306;2023-04-29T06:55:22;95463.34;;;20.55;32.38
68141;BME280;54941;52.220;104.306;2023-04-29T06:57:49;95465.59;;;20.88;31.72
68141;BME280;54941;52.220;104.306;2023-04-29T07:00:16;95458.03;;;21.01;31.47
68141;BME280;54941;52.220;104.306;2023-04-29T07:02:43;95457.00;;;21.51;31.08
68141;BME280;54941;52.220;104.306;2023-04-29T07:05:11;95452.72;;;21.55;30.52
68141;BME280;54941;52.220;104.306;2023-04-29T07:07:37;95441.31;;;21.38;30.97
68141;BME280;54941;52.220;104.306;2023-04-29T07:10:04;95443.94;;;21.96;30.48
68141;BME280;54941;52.220;104.306;2023-04-29T07:12:32;95437.09;;;21.14;31.69
68141;BME280;54941;52.220;104.306;2023-04-29T07:14:59;95444.59;;;21.79;30.57
68141;BME280;54941;52.220;104.306;2023-04-29T07:17:28;95436.91;;;21.82;30.50
68141;BME280;54941;52.220;104.306;2023-04-29T07:19:55;95439.25;;;21.70;30.59
68141;BME280;54941;52.220;104.306;2023-04-29T07:22:25;95431.94;;;20.96;31.69
68141;BME280;54941;52.220;104.306;2023-04-29T07:24:54;95431.16;;;21.80;30.28
68141;BME280;54941;52.220;104.306;2023-04-29T07:27:21;95430.41;;;21.80;30.84
68141;BME280;54941;52.220;104.306;2023-04-29T07:29:48;95424.41;;;21.88;30.15
68141;BME280;54941;52.220;104.306;2023-04-29T07:32:15;95424.19;;;21.76;30.85
68141;BME280;54941;52.220;104.306;2023-04-29T07:34:42;95416.25;;;21.90;30.58
68141;BME280;54941;52.220;104.306;2023-04-29T07:37:08;95405.75;;;21.67;30.54
68141;BME280;54941;52.220;104.306;2023-04-29T07:39:37;95401.88;;;20.79;31.54
68141;BME280;54941;52.220;104.306;2023-04-29T07:42:04;95405.72;;;20.27;32.39
68141;BME280;54941;52.220;104.306;2023-04-29T07:44:30;95406.31;;;21.20;31.13
68141;BME280;54941;52.220;104.306;2023-04-29T07:46:57;95410.66;;;21.60;30.87
68141;BME280;54941;52.220;104.306;2023-04-29T07:49:24;95403.88;;;21.23;31.53
68141;BME280;54941;52.220;104.306;2023-04-29T07:51:50;95398.97;;;20.95;31.68
68141;BME280;54941;52.220;104.306;2023-04-29T07:54:17;95394.25;;;20.10;33.33
68141;BME280;54941;52.220;104.306;2023-04-29T07:56:46;95400.81;;;20.53;32.44
68141;BME280;54941;52.220;104.306;2023-04-29T07:59:14;95407.50;;;20.59;32.47
68141;BME280;54941;52.220;104.306;2023-04-29T08:01:40;95410.44;;;20.58;32.54
68141;BME280;54941;52.220;104.306;2023-04-29T08:04:07;95406.53;;;20.42;32.72
68141;BME280;54941;52.220;104.306;2023-04-29T08:06:34;95396.16;;;20.91;31.91
68141;BME280;54941;52.220;104.306;2023-04-29T08:09:01;95391.06;;;21.58;30.73
68141;BME280;54941;52.220;104.306;2023-04-29T08:11:28;95398.88;;;21.13;31.55
68141;BME280;54941;52.220;104.306;2023-04-29T08:13:56;95376.81;;;21.01;31.48
68141;BME280;54941;52.220;104.306;2023-04-29T08:16:23;95371.47;;;21.19;31.81
68141;BME280;54941;52.220;104.306;2023-04-29T08:18:52;95368.44;;;20.76;32.27
68141;BME280;54941;52.220;104.306;2023-04-29T08:21:19;95361.88;;;21.59;30.97
68141;BME280;54941;52.220;104.306;2023-04-29T08:23:46;95361.25;;;22.38;29.91
68141;BME280;54941;52.220;104.306;2023-04-29T08:26:16;95350.75;;;21.54;31.35
68141;BME280;54941;52.220;104.306;2023-04-29T08:28:42;95340.09;;;21.28;31.55
68141;BME280;54941;52.220;104.306;2023-04-29T08:31:17;95357.84;;;22.06;31.20
68141;BME280;54941;52.220;104.306;2023-04-29T08:33:49;95349.41;;;22.18;30.20
68141;BME280;54941;52.220;104.306;2023-04-29T08:36:15;95344.66;;;22.28;30.50
68141;BME280;54941;52.220;104.306;2023-04-29T08:38:42;95333.50;;;21.83;31.13
68141;BME280;54941;52.220;104.306;2023-04-29T08:41:09;95341.63;;;22.83;29.27
68141;BME280;54941;52.220;104.306;2023-04-29T08:43:38;95334.28;;;21.62;31.12
68141;BME280;54941;52.220;104.306;2023-04-29T08:46:04;95324.72;;;21.66;31.20
68141;BME280;54941;52.220;104.306;2023-04-29T08:48:37;95328.75;;;22.16;30.26
68141;BME280;54941;52.220;104.306;2023-04-29T08:51:11;95329.78;;;21.31;31.41
68141;BME280;54941;52.220;104.306;2023-04-29T08:53:37;95323.66;;;21.67;30.78
68141;BME280;54941;52.220;104.306;2023-04-29T08:56:12;95326.22;;;21.80;30.82
68141;BME280;54941;52.220;104.306;2023-04-29T08:58:42;95315.56;;;21.55;31.28
68141;BME280;54941;52.220;104.306;2023-04-29T09:01:10;95322.75;;;20.69;32.30
68141;BME280;54941;52.220;104.306;2023-04-29T09:03:43;95308.59;;;20.92;32.01
68141;BME280;54941;52.220;104.306;2023-04-29T09:06:13;95316.13;;;21.07;31.45
68141;BME280;54941;52.220;104.306;2023-04-29T09:08:40;95310.75;;;21.48;31.64
68141;BME280;54941;52.220;104.306;2023-04-29T09:11:08;95309.88;;;21.53;30.92
68141;BME280;54941;52.220;104.306;2023-04-29T09:13:40;95315.94;;;21.40;31.05
68141;BME280;54941;52.220;104.306;2023-04-29T09:16:10;95301.91;;;21.35;31.42
68141;BME280;54941;52.220;104.306;2023-04-29T09:18:45;95306.91;;;21.99;30.49
68141;BME280;54941;52.220;104.306;2023-04-29T09:21:13;95308.78;;;21.84;30.76
68141;BME280;54941;52.220;104.306;2023-04-29T09:23:41;95301.88;;;21.58;30.69
68141;BME280;54941;52.220;104.306;2023-04-29T09:26:07;95291.75;;;20.84;31.94
68141;BME280;54941;52.220;104.306;2023-04-29T09:28:34;95296.44;;;21.10;31.52
68141;BME280;54941;52.220;104.306;2023-04-29T09:31:01;95292.66;;;21.16;31.42
68141;BME280;54941;52.220;104.306;2023-04-29T09:33:29;95269.88;;;20.67;32.13
68141;BME280;54941;52.220;104.306;2023-04-29T09:35:57;95266.44;;;21.16;31.29
68141;BME280;54941;52.220;104.306;2023-04-29T09:38:23;95269.00;;;20.71;32.08
68141;BME280;54941;52.220;104.306;2023-04-29T09:40:50;95271.38;;;21.70;30.58
68141;BME280;54941;52.220;104.306;2023-04-29T09:43:17;95269.63;;;20.77;31.69
68141;BME280;54941;52.220;104.306;2023-04-29T09:45:46;95269.75;;;21.52;31.21
68141;BME280;54941;52.220;104.306;2023-04-29T09:48:13;95269.53;;;21.18;31.62
68141;BME280;54941;52.220;104.306;2023-04-29T09:50:41;95265.44;;;20.89;31.65
68141;BME280;54941;52.220;104.306;2023-04-29T09:53:10;95261.56;;;20.65;32.46
68141;BME280;54941;52.220;104.306;2023-04-29T09:55:57;95250.16;;;20.33;32.54
68141;BME280;54941;52.220;104.306;2023-04-29T09:58:27;95249.00;;;19.99;33.29
68141;BME280;54941;52.220;104.306;2023-04-29T10:00:54;95256.88;;;20.98;31.92
68141;BME280;54941;52.220;104.306;2023-04-29T10:03:22;95253.13;;;20.54;32.75
68141;BME280;54941;52.220;104.306;2023-04-29T10:05:48;95250.34;;;20.51;32.47
68141;BME280;54941;52.220;104.306;2023-04-29T10:08:23;95250.75;;;20.80;32.22
68141;BME280;54941;52.220;104.306;2023-04-29T10:10:50;95246.38;;;20.12;33.02
68141;BME280;54941;52.220;104.306;2023-04-29T10:13:17;95244.91;;;20.83;32.16
68141;BME280;54941;52.220;104.306;2023-04-29T10:15:51;95245.88;;;21.09;31.52
68141;BME280;54941;52.220;104.306;2023-04-29T10:18:32;95246.78;;;20.69;32.39
68141;BME280;54941;52.220;104.306;2023-04-29T10:21:00;95240.97;;;20.36;32.97
68141;BME280;54941;52.220;104.306;2023-04-29T10:23:32;95248.88;;;20.58;32.26
68141;BME280;54941;52.220;104.306;2023-04-29T10:26:00;95239.00;;;21.00;32.03
68141;BME280;54941;52.220;104.306;2023-04-29T10:28:30;95236.69;;;20.98;31.77
68141;BME280;54941;52.220;104.306;2023-04-29T10:30:57;95237.31;;;20.59;32.20
68141;BME280;54941;52.220;104.306;2023-04-29T10:33:29;95230.28;;;21.26;31.55
68141;BME280;54941;52.220;104.306;2023-04-29T10:35:56;95227.09;;;20.94;31.91
68141;BME280;54941;52.220;104.306;2023-04-29T10:38:24;95228.59;;;21.08;31.62
68141;BME280;54941;52.220;104.306;2023-04-29T10:40:57;95222.72;;;21.56;30.91
68141;BME280;54941;52.220;104.306;2023-04-29T10:43:27;95229.50;;;20.46;32.87
68141;BME280;54941;52.220;104.306;2023-04-29T10:46:18;95223.03;;;19.88;33.22
68141;BME280;54941;52.220;104.306;2023-04-29T10:48:45;95222.06;;;19.98;33.13
68141;BME280;54941;52.220;104.306;2023-04-29T10:51:11;95218.63;;;20.97;31.50
68141;BME280;54941;52.220;104.306;2023-04-29T10:53:59;95220.13;;;20.17;32.57
68141;BME280;54941;52.220;104.306;2023-04-29T10:56:36;95222.44;;;20.05;32.97
68141;BME280;54941;52.220;104.306;2023-04-29T10:59:03;95222.88;;;20.48;32.21
68141;BME280;54941;52.220;104.306;2023-04-29T11:01:45;95216.75;;;19.76;33.13
68141;BME280;54941;52.220;104.306;2023-04-29T11:04:12;95216.34;;;19.69;33.39
68141;BME280;54941;52.220;104.306;2023-04-29T11:06:40;95218.66;;;20.38;32.41
68141;BME280;54941;52.220;104.306;2023-04-29T11:09:09;95222.81;;;20.26;32.68
68141;BME280;54941;52.220;104.306;2023-04-29T11:11:57;95206.66;;;19.83;33.41
68141;BME280;54941;52.220;104.306;2023-04-29T11:14:25;95206.56;;;20.02;33.13
68141;BME280;54941;52.220;104.306;2023-04-29T11:16:53;95207.03;;;20.31;32.49
68141;BME280;54941;52.220;104.306;2023-04-29T11:19:19;95207.81;;;20.31;32.60
68141;BME280;54941;52.220;104.306;2023-04-29T11:21:46;95211.31;;;20.13;32.60
68141;BME280;54941;52.220;104.306;2023-04-29T11:24:13;95210.38;;;20.45;32.29
68141;BME280;54941;52.220;104.306;2023-04-29T11:26:39;95212.75;;;19.92;33.15
68141;BME280;54941;52.220;104.306;2023-04-29T11:29:07;95207.34;;;20.02;33.05
68141;BME280;54941;52.220;104.306;2023-04-29T11:31:34;95198.53;;;19.98;33.03
68141;BME280;54941;52.220;104.306;2023-04-29T11:34:02;95204.38;;;19.35;34.05
68141;BME280;54941;52.220;104.306;2023-04-29T11:36:30;95195.25;;;19.33;34.00
68141;BME280;54941;52.220;104.306;2023-04-29T11:38:59;95199.69;;;19.19;34.05
68141;BME280;54941;52.220;104.306;2023-04-29T11:41:26;95197.66;;;19.16;34.62
68141;BME280;54941;52.220;104.306;2023-04-29T11:43:54;95195.63;;;19.86;33.71
68141;BME280;54941;52.220;104.306;2023-04-29T11:46:22;95193.69;;;19.64;33.05
68141;BME280;54941;52.220;104.306;2023-04-29T11:48:49;95195.47;;;19.36;33.96
68141;BME280;54941;52.220;104.306;2023-04-29T11:51:16;95192.72;;;19.47;33.78
68141;BME280;54941;52.220;104.306;2023-04-29T11:53:44;95189.16;;;19.24;33.85
68141;BME280;54941;52.220;104.306;2023-04-29T11:56:10;95191.78;;;19.37;33.67
68141;BME280;54941;52.220;104.306;2023-04-29T11:58:37;95189.34;;;19.14;34.25
68141;BME280;54941;52.220;104.306;2023-04-29T12:01:04;95190.03;;;19.33;33.69
68141;BME280;54941;52.220;104.306;2023-04-29T12:03:32;95197.34;;;19.50;33.36
68141;BME280;54941;52.220;104.306;2023-04-29T12:06:00;95195.91;;;19.43;33.79
68141;BME280;54941;52.220;104.306;2023-04-29T12:08:27;95194.16;;;19.53;33.46
68141;BME280;54941;52.220;104.306;2023-04-29T12:10:54;95200.28;;;19.62;33.24
68141;BME280;54941;52.220;104.306;2023-04-29T12:13:22;95194.53;;;19.73;33.21
68141;BME280;54941;52.220;104.306;2023-04-29T12:15:50;95196.31;;;19.91;33.37
68141;BME280;54941;52.220;104.306;2023-04-29T12:18:18;95201.56;;;19.00;34.12
68141;BME280;54941;52.220;104.306;2023-04-29T12:20:46;95197.25;;;19.09;34.25
68141;BME280;54941;52.220;104.306;2023-04-29T12:23:13;95201.47;;;18.91;34.32
68141;BME280;54941;52.220;104.306;2023-04-29T12:25:40;95202.00;;;19.07;34.10
68141;BME280;54941;52.220;104.306;2023-04-29T12:28:11;95203.28;;;19.36;33.53
68141;BME280;54941;52.220;104.306;2023-04-29T12:30:37;95206.44;;;19.52;33.28
68141;BME280;54941;52.220;104.306;2023-04-29T12:33:05;95206.53;;;18.26;34.61
68141;BME280;54941;52.220;104.306;2023-04-29T12:35:33;95201.34;;;17.60;35.93
68141;BME280;54941;52.220;104.306;2023-04-29T12:38:00;95199.50;;;17.61;36.12
68141;BME280;54941;52.220;104.306;2023-04-29T12:40:27;95201.91;;;17.57;36.58
68141;BME280;54941;52.220;104.306;2023-04-29T12:42:53;95209.00;;;17.75;35.93